Time;durP1;ratioP1;P1;durP2;ratioP2;P2;SDS_P1;SDS_P2;PMS_P1;PMS_P2;Temp;Humidity;BMP_temperature;BMP_pressure;BME280_temperature;BME280_humidity;BME280_pressure;Samples;Min_cycle;Max_cycle;Signal;HPM_P1;HPM_P2
2022/03/27 00:01:56;;;;;;;11.73;10.40;;;;;;;7.14;100.00;102073.66;5072835;28;20285;-74
2022/03/27 00:04:21;;;;;;;11.80;9.43;;;;;;;7.17;100.00;102067.72;5073015;28;20198;-76
2022/03/27 00:06:46;;;;;;;12.07;9.47;;;;;;;7.11;100.00;102074.16;5073174;28;20638;-73
2022/03/27 00:09:12;;;;;;;10.77;9.33;;;;;;;7.11;100.00;102077.69;5073095;28;20200;-75
2022/03/27 00:11:38;;;;;;;14.03;9.37;;;;;;;7.20;100.00;102074.53;5073219;28;20185;-77
2022/03/27 00:14:05;;;;;;;9.83;8.93;;;;;;;7.30;100.00;102072.00;5073050;28;20175;-78
2022/03/27 00:16:31;;;;;;;9.37;8.47;;;;;;;7.23;100.00;102085.72;5072870;28;20163;-73
2022/03/27 00:18:57;;;;;;;12.07;10.37;;;;;;;7.38;100.00;102088.72;5072623;28;20190;-73
2022/03/27 00:21:22;;;;;;;10.63;9.57;;;;;;;7.44;100.00;102087.69;5072907;28;20175;-75
2022/03/27 00:23:50;;;;;;;12.87;11.40;;;;;;;7.56;100.00;102084.88;5073138;28;20621;-77
2022/03/27 00:26:16;;;;;;;11.27;9.83;;;;;;;7.38;100.00;102075.13;5072764;28;20187;-74
2022/03/27 00:28:42;;;;;;;15.67;11.10;;;;;;;7.45;100.00;102080.38;5072496;28;20170;-74
2022/03/27 00:31:10;;;;;;;13.00;10.33;;;;;;;7.23;100.00;102076.75;5072781;28;20185;-77
2022/03/27 00:33:37;;;;;;;12.37;10.60;;;;;;;7.32;100.00;102078.00;5071449;28;20182;-75
2022/03/27 00:36:05;;;;;;;13.10;11.27;;;;;;;7.51;100.00;102075.81;5072704;28;20174;-74
2022/03/27 00:38:30;;;;;;;13.13;11.53;;;;;;;7.46;100.00;102087.44;5072393;28;20171;-76
2022/03/27 00:40:56;;;;;;;12.03;10.70;;;;;;;7.27;100.00;102064.34;5072651;28;20174;-74
2022/03/27 00:43:23;;;;;;;10.90;9.80;;;;;;;7.14;100.00;102071.75;5072485;28;20537;-73
2022/03/27 00:45:49;;;;;;;10.70;9.43;;;;;;;7.15;100.00;102081.56;5072304;28;20186;-76
2022/03/27 00:48:18;;;;;;;11.90;10.57;;;;;;;7.12;100.00;102083.97;5072089;28;20170;-73
2022/03/27 00:50:45;;;;;;;12.20;10.87;;;;;;;7.17;100.00;102081.31;5072528;28;20166;-73
2022/03/27 00:53:11;;;;;;;13.43;10.20;;;;;;;7.19;100.00;102067.47;5072188;28;20658;-75
2022/03/27 00:55:37;;;;;;;10.90;9.80;;;;;;;7.35;100.00;102066.63;5072239;28;20174;-76
2022/03/27 00:58:03;;;;;;;11.90;10.50;;;;;;;7.59;100.00;102083.56;5071828;28;20652;-73
2022/03/27 01:00:37;;;;;;;11.00;9.77;;;;;;;7.43;100.00;102080.63;5072067;28;20174;-73
2022/03/27 01:03:05;;;;;;;10.03;8.80;;;;;;;7.21;100.00;102076.19;5072145;28;20200;-75
2022/03/27 01:05:31;;;;;;;10.40;8.60;;;;;;;7.09;100.00;102079.84;5071961;28;20193;-74
2022/03/27 01:07:56;;;;;;;9.20;8.30;;;;;;;7.08;100.00;102083.59;5071821;28;20166;-74
2022/03/27 01:10:25;;;;;;;16.17;9.87;;;;;;;7.04;100.00;102076.19;5071926;28;20175;-75
2022/03/27 01:12:51;;;;;;;13.60;10.37;;;;;;;7.01;100.00;102061.22;5071919;28;20170;-75
2022/03/27 01:15:31;;;;;;;12.10;10.13;;;;;;;7.01;100.00;102071.28;5070935;28;20177;-78
2022/03/27 01:17:57;;;;;;;13.93;11.10;;;;;;;7.05;100.00;102070.53;5071752;28;20219;-77
2022/03/27 01:20:31;;;;;;;13.73;11.53;;;;;;;6.99;100.00;102074.25;5070302;28;20634;-76
2022/03/27 01:22:57;;;;;;;15.70;11.03;;;;;;;7.13;100.00;102072.84;5071700;28;20166;-74
2022/03/27 01:25:22;;;;;;;27.87;12.97;;;;;;;7.40;100.00;102064.81;5071600;28;20271;-79
2022/03/27 01:27:48;;;;;;;18.00;11.87;;;;;;;7.57;100.00;102064.78;5071310;28;20171;-74
2022/03/27 01:30:13;;;;;;;22.07;13.10;;;;;;;7.67;100.00;102064.91;5071476;28;20217;-74
2022/03/27 01:32:38;;;;;;;21.10;12.33;;;;;;;7.72;100.00;102064.97;5071451;28;20228;-74
2022/03/27 01:35:05;;;;;;;14.00;12.33;;;;;;;7.72;100.00;102064.97;5071425;28;20175;-74
2022/03/27 01:37:30;;;;;;;15.13;11.23;;;;;;;7.73;100.00;102061.19;5071155;28;20162;-76
2022/03/27 01:39:56;;;;;;;12.23;10.97;;;;;;;7.61;100.00;102054.19;5069964;28;20182;-75
2022/03/27 01:42:22;;;;;;;10.93;9.90;;;;;;;7.58;100.00;102052.81;5071158;28;20240;-74
2022/03/27 01:44:47;;;;;;;13.07;10.73;;;;;;;7.58;100.00;102052.81;5071494;28;20186;-75
2022/03/27 01:47:13;;;;;;;13.83;9.97;;;;;;;7.47;100.00;102045.59;5070995;28;20174;-74
2022/03/27 01:49:40;;;;;;;11.53;9.40;;;;;;;7.39;100.00;102065.06;5070964;28;20181;-73
2022/03/27 01:52:06;;;;;;;10.07;9.13;;;;;;;7.34;100.00;102062.25;5071439;28;20653;-74
2022/03/27 01:54:31;;;;;;;11.30;10.07;;;;;;;7.27;100.00;102064.34;5071586;28;20252;-74
2022/03/27 01:56:57;;;;;;;11.93;10.13;;;;;;;7.18;100.00;102066.63;5070725;28;20179;-74
2022/03/27 01:59:22;;;;;;;10.60;9.60;;;;;;;7.18;100.00;102068.53;5069626;28;20312;-78
2022/03/27 02:01:48;;;;;;;10.63;9.53;;;;;;;7.20;100.00;102063.69;5070988;28;20511;-75
2022/03/27 02:04:13;;;;;;;13.13;11.53;;;;;;;7.26;100.00;102066.22;5069540;28;20293;-75
2022/03/27 02:06:39;;;;;;;10.47;9.47;;;;;;;7.23;100.00;102055.00;5070730;28;20316;-76
2022/03/27 02:09:05;;;;;;;11.03;9.93;;;;;;;7.13;100.00;102064.69;5070739;28;20185;-78
2022/03/27 02:11:31;;;;;;;10.87;9.77;;;;;;;7.14;100.00;102060.06;5070701;28;20174;-73
2022/03/27 02:13:56;;;;;;;11.03;9.97;;;;;;;7.12;100.00;102048.63;5070833;28;20177;-74
2022/03/27 02:16:22;;;;;;;11.03;10.03;;;;;;;7.11;100.00;102072.25;5070749;28;20534;-75
2022/03/27 02:18:47;;;;;;;11.43;10.33;;;;;;;7.05;100.00;102067.81;5070291;28;20174;-73
2022/03/27 02:21:12;;;;;;;14.47;9.93;;;;;;;7.12;100.00;102051.34;5069423;28;20174;-75
2022/03/27 02:23:43;;;;;;;11.07;9.97;;;;;;;7.22;100.00;102061.53;5070660;28;20688;-72
2022/03/27 02:26:09;;;;;;;10.97;9.63;;;;;;;7.19;100.00;102062.03;5069290;28;20190;-79
2022/03/27 02:28:34;;;;;;;13.90;11.07;;;;;;;6.93;100.00;102053.47;5068972;28;20197;-76
2022/03/27 02:31:00;;;;;;;13.57;11.90;;;;;;;7.10;100.00;102054.31;5070577;28;20173;-79
2022/03/27 02:33:25;;;;;;;13.53;11.03;;;;;;;7.26;100.00;102065.41;5070479;28;20183;-76
2022/03/27 02:35:51;;;;;;;15.03;11.87;;;;;;;7.28;100.00;102055.94;5070597;28;20257;-77
2022/03/27 02:38:16;;;;;;;13.27;11.70;;;;;;;7.21;100.00;102070.75;5070200;28;20167;-76
2022/03/27 02:40:43;;;;;;;12.27;10.77;;;;;;;7.28;100.00;102065.97;5070519;28;20641;-76
2022/03/27 02:43:12;;;;;;;12.93;11.60;;;;;;;7.32;100.00;102051.63;5070885;28;20182;-74
2022/03/27 02:45:39;;;;;;;12.63;10.53;;;;;;;7.30;100.00;102059.22;5070380;28;20202;-74
2022/03/27 02:48:05;;;;;;;13.53;10.47;;;;;;;7.28;100.00;102069.53;5070383;28;20184;-73
2022/03/27 02:50:31;;;;;;;11.80;10.57;;;;;;;7.25;100.00;102064.59;5070446;28;20202;-75
2022/03/27 02:52:58;;;;;;;13.70;12.40;;;;;;;7.23;100.00;102047.69;5070388;28;20262;-78
2022/03/27 02:55:24;;;;;;;17.73;12.17;;;;;;;7.18;100.00;102041.34;5070584;28;20197;-76
2022/03/27 02:57:50;;;;;;;13.93;10.77;;;;;;;7.26;100.00;102049.09;5070193;28;20195;-75
2022/03/27 03:00:16;;;;;;;13.83;12.37;;;;;;;7.14;100.00;102058.16;5070450;28;20174;-76
2022/03/27 03:02:42;;;;;;;13.87;12.40;;;;;;;7.09;100.00;102060.00;5070612;28;20535;-78
2022/03/27 03:05:09;;;;;;;18.20;13.27;;;;;;;7.10;100.00;102056.22;5070410;28;20631;-79
2022/03/27 03:07:35;;;;;;;16.63;13.27;;;;;;;7.07;100.00;102060.22;5069115;28;20661;-81
2022/03/27 03:10:02;;;;;;;22.33;13.53;;;;;;;7.00;100.00;102064.19;5069130;28;20178;-73
2022/03/27 03:12:27;;;;;;;21.97;15.07;;;;;;;6.86;100.00;102064.50;5070294;28;20221;-74
2022/03/27 03:14:55;;;;;;;20.40;14.37;;;;;;;6.99;100.00;102065.25;5070303;28;20582;-73
2022/03/27 03:17:21;;;;;;;22.53;15.43;;;;;;;6.90;100.00;102059.41;5069947;28;20262;-73
2022/03/27 03:19:47;;;;;;;24.50;13.77;;;;;;;7.06;100.00;102058.56;5069860;28;20180;-73
2022/03/27 03:22:12;;;;;;;19.77;14.33;;;;;;;7.04;100.00;102063.44;5070706;28;20170;-73
2022/03/27 03:24:38;;;;;;;21.13;13.93;;;;;;;6.89;100.00;102055.03;5070243;28;20230;-73
2022/03/27 03:27:03;;;;;;;18.93;13.33;;;;;;;6.92;100.00;102057.25;5069927;28;20208;-73
2022/03/27 03:29:29;;;;;;;24.73;14.93;;;;;;;7.11;100.00;102066.00;5070147;28;20174;-73
2022/03/27 03:31:54;;;;;;;18.73;14.80;;;;;;;7.29;100.00;102037.72;5070208;28;20638;-73
2022/03/27 03:34:20;;;;;;;21.37;14.97;;;;;;;7.31;100.00;102050.00;5070262;28;20348;-73
2022/03/27 03:36:45;;;;;;;21.37;14.03;;;;;;;7.01;100.00;102044.91;5069032;28;20281;-73
2022/03/27 03:39:11;;;;;;;18.43;13.77;;;;;;;6.81;100.00;102044.59;5073576;28;20187;-73
2022/03/27 03:41:36;;;;;;;22.77;14.87;;;;;;;6.75;100.00;102061.88;5074354;28;20170;-73
2022/03/27 03:44:02;;;;;;;21.37;14.43;;;;;;;6.91;100.00;102043.94;5078033;28;20166;-72
2022/03/27 03:46:27;;;;;;;25.60;15.23;;;;;;;6.71;100.00;102047.97;5079037;28;20618;-73
2022/03/27 03:48:53;;;;;;;23.60;15.40;;;;;;;6.60;100.00;102045.31;5073340;28;20221;-72
2022/03/27 03:51:19;;;;;;;17.77;12.53;;;;;;;6.45;100.00;102024.97;5067870;28;20182;-72
2022/03/27 03:53:44;;;;;;;17.33;11.80;;;;;;;6.44;100.00;102046.94;5073414;28;20213;-73
2022/03/27 03:56:11;;;;;;;14.57;12.07;;;;;;;6.43;100.00;102059.69;5073396;28;20213;-73
2022/03/27 03:58:36;;;;;;;13.60;11.77;;;;;;;6.36;100.00;102031.88;5073272;28;20224;-73
2022/03/27 04:01:03;;;;;;;15.13;11.53;;;;;;;6.35;100.00;102046.50;5073640;28;20578;-72
2022/03/27 04:03:29;;;;;;;18.97;12.40;;;;;;;6.30;100.00;102041.00;5073250;28;20213;-73
2022/03/27 04:05:54;;;;;;;15.67;13.00;;;;;;;6.25;100.00;102057.19;5073250;28;20206;-73
2022/03/27 04:08:19;;;;;;;17.80;12.03;;;;;;;6.22;100.00;102044.09;5073152;28;20174;-72
2022/03/27 04:10:46;;;;;;;13.33;12.03;;;;;;;6.26;100.00;102048.81;5073324;28;20197;-72
2022/03/27 04:13:11;;;;;;;16.50;12.80;;;;;;;6.21;100.00;102050.56;5073268;28;20190;-73
2022/03/27 04:15:38;;;;;;;15.70;13.03;;;;;;;6.19;100.00;102056.25;5073255;28;20595;-73
2022/03/27 04:18:04;;;;;;;16.97;12.33;;;;;;;6.30;100.00;102053.75;5071685;28;20174;-73
2022/03/27 04:20:29;;;;;;;14.73;10.60;;;;;;;6.34;100.00;102047.56;5072745;28;20541;-73
2022/03/27 04:22:55;;;;;;;13.70;12.30;;;;;;;6.32;100.00;102040.75;5072966;28;20174;-72
2022/03/27 04:25:20;;;;;;;17.33;12.87;;;;;;;6.33;100.00;102045.94;5073177;28;20206;-73
2022/03/27 04:27:46;;;;;;;16.83;12.43;;;;;;;6.33;100.00;102035.06;5072741;28;20699;-73
2022/03/27 04:30:12;;;;;;;17.20;13.77;;;;;;;6.38;100.00;102045.22;5072829;28;20175;-73
2022/03/27 04:32:38;;;;;;;17.03;13.27;;;;;;;6.44;100.00;102061.34;5072780;28;20189;-72
2022/03/27 04:35:05;;;;;;;15.00;12.07;;;;;;;6.37;100.00;102059.84;5072827;28;20449;-73
2022/03/27 04:37:31;;;;;;;13.90;12.33;;;;;;;6.41;100.00;102056.41;5072295;28;20181;-73
2022/03/27 04:40:02;;;;;;;15.70;13.57;;;;;;;6.47;100.00;102057.31;5072804;28;20182;-73
2022/03/27 04:42:29;;;;;;;14.27;12.17;;;;;;;6.42;100.00;102049.09;5072590;28;20167;-72
2022/03/27 04:44:54;;;;;;;13.77;12.27;;;;;;;6.41;100.00;102050.97;5072492;28;20202;-73
2022/03/27 04:47:20;;;;;;;16.27;12.10;;;;;;;6.35;100.00;102049.22;5072429;28;20539;-73
2022/03/27 04:49:45;;;;;;;18.23;13.23;;;;;;;6.36;100.00;102052.75;5072324;28;20589;-73
2022/03/27 04:52:11;;;;;;;22.30;14.57;;;;;;;6.17;100.00;102047.53;5071357;28;20197;-73
2022/03/27 04:54:37;;;;;;;13.77;11.93;;;;;;;6.17;100.00;102061.09;5072283;28;20216;-73
2022/03/27 04:57:03;;;;;;;18.10;14.20;;;;;;;6.17;100.00;102057.56;5072259;28;20197;-71
2022/03/27 04:59:28;;;;;;;18.33;13.47;;;;;;;6.17;100.00;102052.97;5072376;28;20239;-72
2022/03/27 05:01:54;;;;;;;20.50;14.67;;;;;;;6.12;100.00;102047.44;5072194;28;20715;-73
2022/03/27 05:04:19;;;;;;;17.90;13.10;;;;;;;6.10;100.00;102046.88;5072143;28;20190;-72
2022/03/27 05:06:44;;;;;;;14.37;12.87;;;;;;;6.02;100.00;102052.66;5072061;28;20200;-76
2022/03/27 05:09:10;;;;;;;18.07;14.17;;;;;;;6.00;100.00;102062.94;5071974;28;20567;-72
2022/03/27 05:11:36;;;;;;;22.57;13.53;;;;;;;6.08;100.00;102067.19;5072151;28;20178;-73
2022/03/27 05:14:02;;;;;;;17.83;13.63;;;;;;;6.16;100.00;102064.88;5071945;28;20241;-73
2022/03/27 05:16:27;;;;;;;19.47;13.73;;;;;;;6.18;100.00;102056.50;5072045;28;20258;-73
2022/03/27 05:18:52;;;;;;;16.37;13.53;;;;;;;6.17;100.00;102066.53;5071506;28;20257;-74
2022/03/27 05:21:18;;;;;;;19.07;14.10;;;;;;;6.30;100.00;102068.13;5071833;28;20240;-73
2022/03/27 05:23:43;;;;;;;18.33;13.83;;;;;;;6.15;100.00;102065.94;5072276;28;20177;-73
2022/03/27 05:26:08;;;;;;;17.87;13.30;;;;;;;6.17;100.00;102054.84;5071819;28;20201;-73
2022/03/27 05:28:34;;;;;;;19.70;13.87;;;;;;;6.17;100.00;102063.81;5072061;28;20243;-73
2022/03/27 05:31:01;;;;;;;18.50;13.73;;;;;;;6.23;100.00;102053.91;5071694;28;20178;-72
2022/03/27 05:33:26;;;;;;;18.97;14.20;;;;;;;6.20;100.00;102060.59;5071644;28;20163;-72
2022/03/27 05:35:53;;;;;;;19.17;14.37;;;;;;;6.18;100.00;102053.78;5071616;28;20236;-73
2022/03/27 05:38:18;;;;;;;23.63;13.83;;;;;;;6.30;100.00;102057.28;5071403;28;20257;-73
2022/03/27 05:40:44;;;;;;;17.90;13.57;;;;;;;6.23;100.00;102062.03;5071516;28;20249;-73
2022/03/27 05:43:09;;;;;;;18.93;13.63;;;;;;;6.11;100.00;102055.84;5071412;28;20182;-81
2022/03/27 05:45:35;;;;;;;19.53;14.23;;;;;;;6.04;100.00;102055.13;5071440;28;20670;-73
2022/03/27 05:48:03;;;;;;;25.97;15.33;;;;;;;6.09;100.00;102050.66;5069934;28;20620;-72
2022/03/27 05:50:29;;;;;;;19.47;14.50;;;;;;;6.11;100.00;102077.53;5071402;28;20512;-72
2022/03/27 05:52:54;;;;;;;22.17;13.17;;;;;;;6.11;100.00;102061.25;5071375;28;20171;-82
2022/03/27 05:55:21;;;;;;;17.10;13.93;;;;;;;6.13;100.00;102054.53;5071190;28;20179;-81
2022/03/27 05:57:48;;;;;;;15.57;12.97;;;;;;;6.33;100.00;102055.97;5071089;28;20186;-82
2022/03/27 06:00:16;;;;;;;20.43;13.67;;;;;;;6.50;100.00;102054.91;5070800;28;20536;-83
2022/03/27 06:02:43;;;;;;;21.10;13.70;;;;;;;6.53;100.00;102073.47;5071133;28;20204;-82
2022/03/27 06:05:09;;;;;;;18.23;12.80;;;;;;;6.65;100.00;102076.09;5071098;28;20206;-79
2022/03/27 06:07:43;;;;;;;19.70;14.47;;;;;;;6.81;100.00;102074.50;5071183;28;20227;-78
2022/03/27 06:10:09;;;;;;;18.63;14.17;;;;;;;6.91;100.00;102063.75;5069779;28;20460;-78
2022/03/27 06:12:34;;;;;;;20.30;13.40;;;;;;;7.00;100.00;102080.50;5071354;28;20564;-76
2022/03/27 06:15:00;;;;;;;19.33;14.13;;;;;;;6.95;100.00;102085.84;5070958;28;20167;-76
2022/03/27 06:17:25;;;;;;;17.33;12.53;;;;;;;6.90;100.00;102091.19;5070771;28;20182;-77
2022/03/27 06:19:50;;;;;;;27.40;14.43;;;;;;;6.96;100.00;102082.88;5070762;28;20170;-77
2022/03/27 06:22:16;;;;;;;25.57;14.87;;;;;;;7.18;100.00;102082.94;5070969;28;20207;-78
2022/03/27 06:24:41;;;;;;;18.00;13.17;;;;;;;7.02;100.00;102084.59;5069548;28;20288;-78
2022/03/27 06:27:06;;;;;;;21.63;15.37;;;;;;;6.66;100.00;102083.19;5070671;28;20170;-78
2022/03/27 06:29:32;;;;;;;18.63;13.93;;;;;;;6.58;100.00;102078.16;5070878;28;20186;-79
2022/03/27 06:31:57;;;;;;;20.07;13.93;;;;;;;6.69;100.00;102079.16;5070956;28;20838;-78
2022/03/27 06:34:22;;;;;;;17.17;13.83;;;;;;;6.86;100.00;102082.72;5071024;28;20636;-77
2022/03/27 06:36:48;;;;;;;25.10;13.80;;;;;;;6.81;100.00;102088.06;5070591;28;20225;-77
2022/03/27 06:39:13;;;;;;;20.53;13.87;;;;;;;6.55;100.00;102071.31;5070602;28;20194;-78
2022/03/27 06:41:39;;;;;;;23.10;13.70;;;;;;;6.49;100.00;102082.31;5069404;28;20686;-74
2022/03/27 06:44:04;;;;;;;25.10;14.03;;;;;;;6.49;100.00;102079.59;5068929;28;20187;-76
2022/03/27 06:46:31;;;;;;;25.63;15.30;;;;;;;6.39;100.00;102090.28;5069261;28;20175;-74
2022/03/27 06:48:56;;;;;;;23.63;16.30;;;;;;;6.46;100.00;102080.09;5103079;28;20574;-75
2022/03/27 06:51:21;;;;;;;23.03;14.53;;;;;;;6.45;100.00;102092.03;5070535;28;20189;-75
2022/03/27 06:53:47;;;;;;;21.30;11.70;;;;;;;6.42;100.00;102092.53;5070520;28;20175;-77
2022/03/27 06:56:13;;;;;;;17.17;12.97;;;;;;;6.39;100.00;102099.25;5070431;28;20262;-74
2022/03/27 06:58:39;;;;;;;17.00;12.33;;;;;;;6.45;100.00;102092.03;5070141;28;20544;-75
2022/03/27 07:03:47;;;;;;;14.83;12.03;;;;;;;6.54;100.00;102090.56;5069582;28;20240;-74
2022/03/27 07:06:19;;;;;;;13.50;11.00;;;;;;;6.77;100.00;102089.59;5070095;28;20597;-75
2022/03/27 07:08:45;;;;;;;15.53;11.40;;;;;;;6.68;100.00;102091.09;5069957;28;20634;-74
2022/03/27 07:11:10;;;;;;;18.73;11.27;;;;;;;6.80;100.00;102089.13;5070214;28;20182;-73
2022/03/27 07:13:36;;;;;;;13.83;11.10;;;;;;;6.99;100.00;102101.41;5073056;28;20182;-75
2022/03/27 07:16:01;;;;;;;14.07;10.30;;;;;;;7.24;100.00;102103.72;5074058;28;20174;-75
2022/03/27 07:18:28;;;;;;;17.50;12.60;;;;;;;7.04;100.00;102104.19;5073530;28;20183;-76
2022/03/27 07:20:54;;;;;;;15.87;11.97;;;;;;;7.22;100.00;102088.72;5073556;28;20227;-78
2022/03/27 07:23:20;;;;;;;14.73;11.70;;;;;;;7.25;100.00;102105.38;5074093;28;20524;-78
2022/03/27 07:25:48;;;;;;;13.37;11.20;;;;;;;7.05;100.00;102092.25;5073976;28;20312;-74
2022/03/27 07:28:15;;;;;;;14.27;11.57;;;;;;;7.27;100.00;102100.50;5072547;28;20174;-75
2022/03/27 07:30:42;;;;;;;13.83;11.10;;;;;;;7.40;100.00;102110.22;5073834;28;20804;-75
2022/03/27 07:33:07;;;;;;;18.93;12.37;;;;;;;7.29;100.00;102094.81;5073367;28;20206;-74
2022/03/27 07:35:34;;;;;;;16.03;11.63;;;;;;;7.21;100.00;102106.91;5073701;28;20198;-74
2022/03/27 07:38:01;;;;;;;20.07;13.17;;;;;;;7.08;100.00;102102.63;5073459;28;20170;-78
2022/03/27 07:40:27;;;;;;;17.97;13.83;;;;;;;6.89;100.00;102095.78;5073739;28;20194;-79
2022/03/27 07:42:54;;;;;;;16.97;13.57;;;;;;;6.89;100.00;102100.41;5073880;28;20671;-74
2022/03/27 07:45:24;;;;;;;21.60;13.43;;;;;;;7.05;100.00;102099.59;5074226;28;20584;-75
2022/03/27 07:47:51;;;;;;;16.03;12.17;;;;;;;7.32;100.00;102114.16;5073306;28;20163;-75
2022/03/27 07:50:18;;;;;;;17.30;13.57;;;;;;;7.41;100.00;102100.97;5073773;28;20625;-77
2022/03/27 07:52:44;;;;;;;17.27;12.70;;;;;;;7.50;100.00;102101.34;5072382;28;20701;-76
2022/03/27 07:55:11;;;;;;;18.73;13.13;;;;;;;7.12;100.00;102114.66;5072293;28;20175;-75
2022/03/27 07:57:37;;;;;;;20.00;13.27;;;;;;;7.31;100.00;102117.94;5071753;28;20185;-76
2022/03/27 08:00:03;;;;;;;17.37;12.47;;;;;;;7.44;100.00;102127.66;5073531;28;20170;-76
2022/03/27 08:02:29;;;;;;;16.67;11.40;;;;;;;7.40;100.00;102132.78;5073577;28;20174;-78
2022/03/27 08:04:54;;;;;;;17.50;11.20;;;;;;;7.44;100.00;102120.34;5073329;28;20221;-79
2022/03/27 08:07:19;;;;;;;16.80;11.40;;;;;;;7.39;100.00;102116.72;5073132;28;20170;-77
2022/03/27 08:09:45;;;;;;;20.77;11.80;;;;;;;7.12;100.00;102114.66;5073472;28;20636;-84
2022/03/27 08:12:11;;;;;;;14.63;12.57;;;;;;;6.90;100.00;102113.75;5073275;28;20212;-79
2022/03/27 08:14:37;;;;;;;14.93;12.57;;;;;;;6.77;100.00;102114.06;5069927;28;20639;-84
2022/03/27 08:17:04;;;;;;;17.57;12.97;;;;;;;6.80;100.00;102119.03;5072542;28;20178;-83
2022/03/27 08:19:30;;;;;;;16.27;12.70;;;;;;;6.98;100.00;102126.13;5072847;28;20224;-81
2022/03/27 08:21:56;;;;;;;13.93;12.50;;;;;;;6.88;100.00;102115.88;5073046;28;20786;-81
2022/03/27 08:24:22;;;;;;;17.93;12.77;;;;;;;7.00;100.00;102129.41;5072507;28;20197;-83
2022/03/27 08:26:59;;;;;;;19.03;13.87;;;;;;;6.93;100.00;102129.53;5072774;28;20650;-85
2022/03/27 08:29:31;;;;;;;13.63;10.97;;;;;;;6.80;100.00;102132.59;5072742;28;20174;-82
2022/03/27 08:32:00;;;;;;;13.37;11.13;;;;;;;6.85;100.00;102147.09;5072748;28;20227;-77
2022/03/27 08:34:26;;;;;;;22.07;12.23;;;;;;;6.93;100.00;102131.44;5072810;28;20642;-83
2022/03/27 08:36:52;;;;;;;18.10;11.03;;;;;;;7.22;100.00;102126.75;5072770;28;20176;-82
2022/03/27 08:39:18;;;;;;;12.57;10.40;;;;;;;7.40;100.00;102131.97;5072825;28;20190;-77
2022/03/27 08:41:45;;;;;;;15.67;11.07;;;;;;;7.47;100.00;102122.56;5071362;28;20179;-81
2022/03/27 08:44:15;;;;;;;16.10;10.37;;;;;;;7.47;100.00;102140.75;5071233;28;20692;-79
2022/03/27 08:46:42;;;;;;;13.63;11.20;;;;;;;7.48;100.00;102139.69;5072385;28;20232;-83
2022/03/27 08:49:26;;;;;;;15.97;12.27;;;;;;;7.55;100.00;102137.63;5072471;28;20181;-83
2022/03/27 08:52:02;;;;;;;18.10;12.73;;;;;;;7.68;100.00;102140.00;5072297;28;20228;-84
2022/03/27 08:54:52;;;;;;;19.87;12.23;;;;;;;7.70;100.00;102140.56;5072226;28;20181;-80
2022/03/27 08:57:24;;;;;;;16.10;11.50;;;;;;;7.61;100.00;102147.50;5072199;28;20194;-82
2022/03/27 08:59:54;;;;;;;15.90;12.07;;;;;;;7.80;100.00;102144.50;5072447;28;20246;-84
2022/03/27 09:02:24;;;;;;;11.73;10.40;;;;;;;7.91;100.00;102146.28;5072269;28;20239;-83
2022/03/27 09:04:59;;;;;;;12.50;10.87;;;;;;;7.93;100.00;102141.41;5072189;28;20196;-83
2022/03/27 09:07:25;;;;;;;13.87;11.37;;;;;;;7.99;100.00;102138.53;5070669;28;20320;-80
2022/03/27 09:09:52;;;;;;;17.10;11.10;;;;;;;8.09;100.00;102154.13;5072225;28;20170;-81
2022/03/27 09:12:20;;;;;;;16.37;11.70;;;;;;;8.06;100.00;102155.47;5072042;28;20178;-79
2022/03/27 09:14:45;;;;;;;18.23;11.93;;;;;;;8.17;100.00;102147.44;5071937;28;20543;-79
2022/03/27 09:17:10;;;;;;;16.63;11.47;;;;;;;7.78;100.00;102149.38;5071775;28;20170;-80
2022/03/27 09:19:41;;;;;;;14.43;10.23;;;;;;;7.76;100.00;102149.63;5070235;28;20187;-82
2022/03/27 09:22:16;;;;;;;13.43;10.43;;;;;;;7.86;100.00;102152.50;5071969;28;20174;-81
2022/03/27 09:24:46;;;;;;;14.30;10.63;;;;;;;7.96;100.00;102154.53;5071820;28;20692;-80
2022/03/27 09:27:12;;;;;;;12.87;11.37;;;;;;;7.68;100.00;102139.19;5071417;28;20199;-82
2022/03/27 09:30:07;;;;;;;10.60;9.03;;;;;;;7.92;100.00;102147.94;5071728;28;20171;-83
2022/03/27 09:32:35;;;;;;;12.57;9.50;;;;;;;7.84;100.00;102145.66;5070340;28;20661;-81
2022/03/27 09:35:08;;;;;;;14.53;10.17;;;;;;;8.06;100.00;102141.03;5069505;28;20713;-83
2022/03/27 09:37:39;;;;;;;11.87;9.60;;;;;;;8.15;100.00;102139.53;5071348;28;20175;-79
2022/03/27 09:40:06;;;;;;;14.90;10.70;;;;;;;8.18;100.00;102141.75;5071356;28;20273;-83
2022/03/27 09:42:31;;;;;;;12.47;10.83;;;;;;;8.25;100.00;102144.28;5071429;28;20186;-77
2022/03/27 09:45:16;;;;;;;12.93;9.93;;;;;;;8.27;100.00;102129.34;5071384;28;20230;-83
2022/03/27 09:47:44;;;;;;;15.33;10.27;;;;;;;8.45;99.57;102138.28;5071081;28;20545;-81
2022/03/27 09:50:34;;;;;;;12.03;9.07;;;;;;;8.52;98.67;102147.88;5071183;28;20208;-82
2022/03/27 09:53:24;;;;;;;13.17;9.83;;;;;;;8.49;98.08;102142.13;5070794;28;20604;-73
2022/03/27 09:55:52;;;;;;;10.10;8.60;;;;;;;8.47;98.41;102131.50;5069224;28;20645;-81
2022/03/27 09:58:45;;;;;;;11.67;8.40;;;;;;;8.34;97.44;102140.06;5070154;28;20194;-78
2022/03/27 10:01:16;;;;;;;12.33;9.53;;;;;;;8.48;97.47;102135.88;5069474;28;20187;-78
2022/03/27 10:03:57;;;;;;;12.50;7.87;;;;;;;8.40;97.30;102138.25;5070617;28;20174;-81
2022/03/27 10:06:31;;;;;;;14.60;9.83;;;;;;;8.48;98.05;102137.75;5071223;28;20400;-81
2022/03/27 10:08:58;;;;;;;11.37;10.17;;;;;;;8.18;98.61;102127.31;5071039;28;20296;-82
2022/03/27 10:11:24;;;;;;;10.83;8.90;;;;;;;8.41;98.97;102132.53;5071121;28;20649;-81
2022/03/27 10:13:53;;;;;;;14.43;9.37;;;;;;;8.51;98.70;102134.53;5070029;28;20206;-81
2022/03/27 10:16:26;;;;;;;16.97;10.53;;;;;;;8.52;98.33;102130.72;5068911;28;20190;-78
2022/03/27 10:18:55;;;;;;;12.40;11.07;;;;;;;8.64;97.67;102112.31;5070146;28;20210;-78
2022/03/27 10:21:24;;;;;;;13.93;11.10;;;;;;;8.73;96.92;102110.78;5071035;28;20171;-76
2022/03/27 10:23:55;;;;;;;16.00;12.10;;;;;;;8.39;96.96;102106.59;5070893;28;20210;-80
2022/03/27 10:26:21;;;;;;;13.80;11.07;;;;;;;8.29;98.06;102104.59;5070656;28;20208;-77
2022/03/27 10:28:49;;;;;;;13.37;10.67;;;;;;;8.64;99.32;102101.44;5070356;28;20170;-81
2022/03/27 10:31:17;;;;;;;14.33;12.17;;;;;;;8.45;98.13;102102.88;5070325;28;20171;-80
2022/03/27 10:33:43;;;;;;;12.90;9.90;;;;;;;8.71;97.88;102103.97;5071604;28;20220;-73
2022/03/27 10:36:21;;;;;;;12.23;10.83;;;;;;;9.03;97.34;102103.97;5078253;28;20241;-73
2022/03/27 10:39:00;;;;;;;16.03;11.90;;;;;;;9.24;95.73;102103.03;5071121;28;20213;-73
2022/03/27 10:41:44;;;;;;;11.40;10.00;;;;;;;9.27;94.09;102088.91;5071154;28;20177;-72
2022/03/27 10:44:41;;;;;;;13.40;9.23;;;;;;;9.15;92.49;102088.25;5071038;28;20228;-72
2022/03/27 10:47:15;;;;;;;12.17;8.83;;;;;;;9.05;94.50;102075.34;5074053;28;20193;-73
2022/03/27 10:50:02;;;;;;;11.43;10.03;;;;;;;9.01;94.64;102081.59;5077390;28;20236;-72
2022/03/27 10:52:42;;;;;;;11.93;9.83;;;;;;;9.32;94.03;102082.66;5077126;28;20178;-73
2022/03/27 10:55:09;;;;;;;11.90;9.97;;;;;;;9.22;93.17;102077.94;5077191;28;20693;-73
2022/03/27 10:57:45;;;;;;;12.37;9.67;;;;;;;9.05;92.63;102080.00;5076875;28;20189;-73
2022/03/27 11:00:12;;;;;;;10.37;9.10;;;;;;;9.33;93.00;102082.38;5077294;28;20626;-73
2022/03/27 11:02:49;;;;;;;9.17;6.87;;;;;;;9.33;92.92;102074.19;5077003;28;20220;-72
2022/03/27 11:05:36;;;;;;;12.87;9.87;;;;;;;9.44;92.13;102075.91;5077123;28;20193;-73
2022/03/27 11:08:36;;;;;;;10.77;8.40;;;;;;;9.45;91.52;102077.56;5075606;28;20178;-74
2022/03/27 11:11:02;;;;;;;9.80;8.57;;;;;;;9.76;92.31;102070.34;5054085;28;20190;-73
2022/03/27 11:13:33;;;;;;;10.97;9.10;;;;;;;9.71;90.74;102069.50;5076834;28;20257;-74
2022/03/27 11:16:11;;;;;;;11.90;9.97;;;;;;;9.68;90.16;102068.13;5075609;28;20683;-72
2022/03/27 11:18:40;;;;;;;11.20;9.93;;;;;;;9.63;90.15;102068.09;5076471;28;20252;-73